sensor_id;sensor_type;location;lat;lon;timestamp;pressure;altitude;pressure_sealevel;temperature;humidity
1077;BME280;64114;48.726;9.370;2022-12-07T00:01:19;98812.25;;;6.09;97.29
1077;BME280;64114;48.726;9.370;2022-12-07T00:03:48;98807.84;;;6.02;97.27
1077;BME280;64114;48.726;9.370;2022-12-07T00:06:17;98815.41;;;6.00;97.26
1077;BME280;64114;48.726;9.370;2022-12-07T00:08:46;98818.19;;;6.09;96.72
1077;BME280;64114;48.726;9.370;2022-12-07T00:11:16;98818.03;;;6.03;97.50
1077;BME280;64114;48.726;9.370;2022-12-07T00:13:47;98817.84;;;5.94;97.46
1077;BME280;64114;48.726;9.370;2022-12-07T00:16:17;98815.22;;;5.91;97.75
1077;BME280;64114;48.726;9.370;2022-12-07T00:18:47;98814.09;;;5.81;97.90
1077;BME280;64114;48.726;9.370;2022-12-07T00:21:16;98816.06;;;5.91;97.75
1077;BME280;64114;48.726;9.370;2022-12-07T00:23:46;98814.00;;;5.76;97.63
1077;BME280;64114;48.726;9.370;2022-12-07T00:26:17;98798.75;;;5.78;97.55
1077;BME280;64114;48.726;9.370;2022-12-07T00:28:49;98815.75;;;5.79;97.51
1077;BME280;64114;48.726;9.370;2022-12-07T00:31:20;98812.28;;;5.77;96.98
1077;BME280;64114;48.726;9.370;2022-12-07T00:33:49;98811.78;;;5.90;97.23
1077;BME280;64114;48.726;9.370;2022-12-07T00:36:19;98812.06;;;6.01;96.71
1077;BME280;64114;48.726;9.370;2022-12-07T00:38:53;98813.41;;;5.87;96.51
1077;BME280;64114;48.726;9.370;2022-12-07T00:41:22;98803.19;;;5.85;96.60
1077;BME280;64114;48.726;9.370;2022-12-07T00:43:52;98802.34;;;5.85;96.75
1077;BME280;64114;48.726;9.370;2022-12-07T00:46:20;98804.59;;;5.74;96.91
1077;BME280;64114;48.726;9.370;2022-12-07T00:48:50;98805.63;;;5.80;96.77
1077;BME280;64114;48.726;9.370;2022-12-07T00:51:20;98803.19;;;5.85;96.98
1077;BME280;64114;48.726;9.370;2022-12-07T00:53:49;98791.88;;;5.74;96.84
1077;BME280;64114;48.726;9.370;2022-12-07T00:56:19;98803.50;;;5.97;96.25
1077;BME280;64114;48.726;9.370;2022-12-07T00:58:53;98797.47;;;5.94;96.11
1077;BME280;64114;48.726;9.370;2022-12-07T01:01:23;98807.03;;;6.03;95.41
1077;BME280;64114;48.726;9.370;2022-12-07T01:03:51;98807.53;;;5.89;96.05
1077;BME280;64114;48.726;9.370;2022-12-07T01:06:21;98808.50;;;5.94;95.63
1077;BME280;64114;48.726;9.370;2022-12-07T01:08:50;98768.91;;;5.71;95.91
1077;BME280;64114;48.726;9.370;2022-12-07T01:11:19;98806.75;;;5.92;96.29
1077;BME280;64114;48.726;9.370;2022-12-07T01:13:52;98804.09;;;5.87;96.10
1077;BME280;64114;48.726;9.370;2022-12-07T01:16:22;98794.72;;;5.86;95.39
1077;BME280;64114;48.726;9.370;2022-12-07T01:18:52;98793.00;;;5.85;95.21
1077;BME280;64114;48.726;9.370;2022-12-07T01:21:22;98790.94;;;5.70;95.98
1077;BME280;64114;48.726;9.370;2022-12-07T01:23:51;98804.81;;;5.83;95.37
1077;BME280;64114;48.726;9.370;2022-12-07T01:26:21;98809.66;;;5.74;95.88
1077;BME280;64114;48.726;9.370;2022-12-07T01:28:49;98810.13;;;5.91;95.74
1077;BME280;64114;48.726;9.370;2022-12-07T01:31:23;98820.91;;;5.82;95.42
1077;BME280;64114;48.726;9.370;2022-12-07T01:33:52;98771.34;;;5.67;94.97
1077;BME280;64114;48.726;9.370;2022-12-07T01:36:22;98819.16;;;5.79;94.77
1077;BME280;64114;48.726;9.370;2022-12-07T01:38:52;98822.88;;;5.92;94.41
1077;BME280;64114;48.726;9.370;2022-12-07T01:41:24;98824.03;;;6.05;93.19
1077;BME280;64114;48.726;9.370;2022-12-07T01:44:11;98813.69;;;5.99;93.08
1077;BME280;64114;48.726;9.370;2022-12-07T01:46:43;98796.09;;;6.07;92.39
1077;BME280;64114;48.726;9.370;2022-12-07T01:49:24;98796.22;;;5.78;92.33
1077;BME280;64114;48.726;9.370;2022-12-07T01:51:58;98811.28;;;5.70;92.30
1077;BME280;64114;48.726;9.370;2022-12-07T01:54:29;98817.19;;;5.69;93.16
1077;BME280;64114;48.726;9.370;2022-12-07T01:56:57;98824.53;;;5.90;92.87
1077;BME280;64114;48.726;9.370;2022-12-07T01:59:26;98816.66;;;5.81;91.69
1077;BME280;64114;48.726;9.370;2022-12-07T02:01:55;98827.03;;;5.89;93.16
1077;BME280;64114;48.726;9.370;2022-12-07T02:04:24;98804.31;;;5.96;92.31
1077;BME280;64114;48.726;9.370;2022-12-07T02:06:53;98818.13;;;6.06;91.71
1077;BME280;64114;48.726;9.370;2022-12-07T02:09:23;98832.69;;;6.12;90.82
1077;BME280;64114;48.726;9.370;2022-12-07T02:11:51;98836.41;;;5.90;91.27
1077;BME280;64114;48.726;9.370;2022-12-07T02:14:19;98826.81;;;5.81;91.97
1077;BME280;64114;48.726;9.370;2022-12-07T02:16:58;98801.78;;;5.63;91.68
1077;BME280;64114;48.726;9.370;2022-12-07T02:20:00;98825.41;;;5.92;91.27
1077;BME280;64114;48.726;9.370;2022-12-07T02:22:54;98821.91;;;5.87;91.41
1077;BME280;64114;48.726;9.370;2022-12-07T02:25:42;98828.75;;;5.90;91.00
1077;BME280;64114;48.726;9.370;2022-12-07T02:28:25;98821.72;;;5.81;90.79
1077;BME280;64114;48.726;9.370;2022-12-07T02:30:58;98815.41;;;5.66;91.50
1077;BME280;64114;48.726;9.370;2022-12-07T02:33:32;98783.47;;;5.44;92.32
1077;BME280;64114;48.726;9.370;2022-12-07T02:36:07;98812.19;;;5.72;92.52
1077;BME280;64114;48.726;9.370;2022-12-07T02:38:40;98813.91;;;5.73;92.36
1077;BME280;64114;48.726;9.370;2022-12-07T02:41:13;98811.38;;;5.73;92.43
1077;BME280;64114;48.726;9.370;2022-12-07T02:43:47;98814.75;;;5.74;92.69
1077;BME280;64114;48.726;9.370;2022-12-07T02:46:22;98807.19;;;5.75;92.26
1077;BME280;64114;48.726;9.370;2022-12-07T02:48:51;98803.09;;;5.82;91.98
1077;BME280;64114;48.726;9.370;2022-12-07T02:51:21;98811.56;;;5.81;92.13
1077;BME280;64114;48.726;9.370;2022-12-07T02:53:50;98809.75;;;5.77;91.98
1077;BME280;64114;48.726;9.370;2022-12-07T02:56:24;98803.25;;;5.87;92.12
1077;BME280;64114;48.726;9.370;2022-12-07T02:59:02;98777.16;;;5.62;91.79
1077;BME280;64114;48.726;9.370;2022-12-07T03:01:38;98767.72;;;5.58;92.57
1077;BME280;64114;48.726;9.370;2022-12-07T03:04:22;98806.63;;;5.87;92.27
1077;BME280;64114;48.726;9.370;2022-12-07T03:06:59;98801.31;;;5.78;92.36
1077;BME280;64114;48.726;9.370;2022-12-07T03:09:33;98765.34;;;5.64;93.03
1077;BME280;64114;48.726;9.370;2022-12-07T03:12:10;98751.94;;;5.37;93.20
1077;BME280;64114;48.726;9.370;2022-12-07T03:14:47;98771.19;;;5.61;92.82
1077;BME280;64114;48.726;9.370;2022-12-07T03:17:21;98784.16;;;5.71;92.58
1077;BME280;64114;48.726;9.370;2022-12-07T03:19:54;98783.19;;;5.65;93.27
1077;BME280;64114;48.726;9.370;2022-12-07T03:22:29;98782.81;;;5.83;92.13
1077;BME280;64114;48.726;9.370;2022-12-07T03:25:02;98787.50;;;5.68;92.65
1077;BME280;64114;48.726;9.370;2022-12-07T03:27:37;98779.00;;;5.67;92.97
1077;BME280;64114;48.726;9.370;2022-12-07T03:30:09;98787.06;;;5.85;92.82
1077;BME280;64114;48.726;9.370;2022-12-07T03:32:41;98787.41;;;5.98;91.95
1077;BME280;64114;48.726;9.370;2022-12-07T03:35:12;98796.88;;;6.04;91.54
1077;BME280;64114;48.726;9.370;2022-12-07T03:37:48;98787.63;;;6.08;91.67
1077;BME280;64114;48.726;9.370;2022-12-07T03:40:23;98788.38;;;6.04;91.06
1077;BME280;64114;48.726;9.370;2022-12-07T03:42:54;98780.00;;;6.08;90.86
1077;BME280;64114;48.726;9.370;2022-12-07T03:45:29;98787.47;;;6.02;91.39
1077;BME280;64114;48.726;9.370;2022-12-07T03:48:04;98786.09;;;6.15;91.33
1077;BME280;64114;48.726;9.370;2022-12-07T03:50:40;98782.63;;;6.11;91.06
1077;BME280;64114;48.726;9.370;2022-12-07T03:53:14;98769.75;;;6.06;91.15
1077;BME280;64114;48.726;9.370;2022-12-07T03:55:46;98779.41;;;6.20;91.24
1077;BME280;64114;48.726;9.370;2022-12-07T03:58:16;98788.94;;;6.27;90.64
1077;BME280;64114;48.726;9.370;2022-12-07T04:00:46;98761.38;;;6.10;90.56
1077;BME280;64114;48.726;9.370;2022-12-07T04:03:17;98779.63;;;6.29;90.24
1077;BME280;64114;48.726;9.370;2022-12-07T04:05:45;98773.41;;;6.16;90.66
1077;BME280;64114;48.726;9.370;2022-12-07T04:08:13;98770.03;;;6.17;90.46
1077;BME280;64114;48.726;9.370;2022-12-07T04:10:42;98777.03;;;6.26;90.67
1077;BME280;64114;48.726;9.370;2022-12-07T04:13:10;98773.78;;;6.32;90.22
1077;BME280;64114;48.726;9.370;2022-12-07T04:15:38;98774.63;;;6.32;89.90
1077;BME280;64114;48.726;9.370;2022-12-07T04:18:07;98772.00;;;6.29;89.83
1077;BME280;64114;48.726;9.370;2022-12-07T04:20:37;98769.44;;;6.27;90.14
1077;BME280;64114;48.726;9.370;2022-12-07T04:23:05;98771.19;;;6.30;89.83
1077;BME280;64114;48.726;9.370;2022-12-07T04:25:33;98754.03;;;6.21;89.77
1077;BME280;64114;48.726;9.370;2022-12-07T04:28:01;98776.13;;;6.24;89.93
1077;BME280;64114;48.726;9.370;2022-12-07T04:30:29;98774.53;;;6.27;89.96
1077;BME280;64114;48.726;9.370;2022-12-07T04:32:57;98756.38;;;6.13;89.92
1077;BME280;64114;48.726;9.370;2022-12-07T04:35:24;98762.28;;;6.12;89.90
1077;BME280;64114;48.726;9.370;2022-12-07T04:37:54;98777.63;;;6.16;89.93
1077;BME280;64114;48.726;9.370;2022-12-07T04:40:22;98773.22;;;6.08;90.57
1077;BME280;64114;48.726;9.370;2022-12-07T04:42:50;98756.13;;;6.04;90.56
1077;BME280;64114;48.726;9.370;2022-12-07T04:45:19;98764.56;;;6.02;90.50
1077;BME280;64114;48.726;9.370;2022-12-07T04:47:46;98764.75;;;6.09;90.54
1077;BME280;64114;48.726;9.370;2022-12-07T04:50:14;98763.16;;;6.13;89.39
1077;BME280;64114;48.726;9.370;2022-12-07T04:52:43;98733.09;;;5.98;89.01
1077;BME280;64114;48.726;9.370;2022-12-07T04:55:12;98763.78;;;6.04;89.58
1077;BME280;64114;48.726;9.370;2022-12-07T04:57:40;98767.88;;;5.97;89.59
1077;BME280;64114;48.726;9.370;2022-12-07T05:00:10;98764.50;;;5.98;89.68
1077;BME280;64114;48.726;9.370;2022-12-07T05:02:37;98757.78;;;6.02;88.87
1077;BME280;64114;48.726;9.370;2022-12-07T05:05:06;98750.03;;;5.96;89.09
1077;BME280;64114;48.726;9.370;2022-12-07T05:07:34;98757.50;;;5.90;88.68
1077;BME280;64114;48.726;9.370;2022-12-07T05:10:03;98743.75;;;5.83;88.87
1077;BME280;64114;48.726;9.370;2022-12-07T05:12:33;98735.13;;;5.76;88.92
1077;BME280;64114;48.726;9.370;2022-12-07T05:15:01;98751.69;;;5.94;88.71
1077;BME280;64114;48.726;9.370;2022-12-07T05:17:29;98746.53;;;5.92;88.33
1077;BME280;64114;48.726;9.370;2022-12-07T05:19:56;98742.94;;;5.84;89.17
1077;BME280;64114;48.726;9.370;2022-12-07T05:22:24;98747.28;;;5.88;89.07
1077;BME280;64114;48.726;9.370;2022-12-07T05:24:54;98738.81;;;5.88;88.92
1077;BME280;64114;48.726;9.370;2022-12-07T05:27:23;98737.25;;;5.94;88.89
1077;BME280;64114;48.726;9.370;2022-12-07T05:29:52;98732.41;;;6.05;88.79
1077;BME280;64114;48.726;9.370;2022-12-07T05:32:20;98751.13;;;6.07;88.21
1077;BME280;64114;48.726;9.370;2022-12-07T05:34:49;98745.69;;;5.92;88.96
1077;BME280;64114;48.726;9.370;2022-12-07T05:37:17;98745.69;;;5.92;89.29
1077;BME280;64114;48.726;9.370;2022-12-07T05:39:45;98751.78;;;5.98;88.91
1077;BME280;64114;48.726;9.370;2022-12-07T05:42:13;98750.78;;;5.92;89.08
1077;BME280;64114;48.726;9.370;2022-12-07T05:44:43;98749.19;;;5.62;90.13
1077;BME280;64114;48.726;9.370;2022-12-07T05:47:14;98737.63;;;5.75;90.07
1077;BME280;64114;48.726;9.370;2022-12-07T05:49:41;98748.84;;;5.83;90.16
1077;BME280;64114;48.726;9.370;2022-12-07T05:52:10;98756.63;;;5.89;90.07
1077;BME280;64114;48.726;9.370;2022-12-07T05:54:37;98757.78;;;6.02;89.24
1077;BME280;64114;48.726;9.370;2022-12-07T05:57:05;98750.63;;;5.86;89.31
1077;BME280;64114;48.726;9.370;2022-12-07T05:59:33;98757.50;;;5.90;89.88
1077;BME280;64114;48.726;9.370;2022-12-07T06:02:02;98758.94;;;5.80;89.20
1077;BME280;64114;48.726;9.370;2022-12-07T06:04:34;98760.09;;;5.91;89.87
1077;BME280;64114;48.726;9.370;2022-12-07T06:07:02;98746.28;;;5.81;89.48
1077;BME280;64114;48.726;9.370;2022-12-07T06:09:31;98775.53;;;5.64;90.25
1077;BME280;64114;48.726;9.370;2022-12-07T06:11:59;98755.00;;;5.58;91.27
1077;BME280;64114;48.726;9.370;2022-12-07T06:14:45;98767.47;;;5.80;90.98
1077;BME280;64114;48.726;9.370;2022-12-07T06:17:14;98770.09;;;5.85;90.26
1077;BME280;64114;48.726;9.370;2022-12-07T06:19:44;98762.56;;;5.88;90.17
1077;BME280;64114;48.726;9.370;2022-12-07T06:22:12;98754.91;;;5.88;89.95
1077;BME280;64114;48.726;9.370;2022-12-07T06:24:41;98766.16;;;5.96;89.31
1077;BME280;64114;48.726;9.370;2022-12-07T06:27:09;98772.81;;;5.91;89.58
1077;BME280;64114;48.726;9.370;2022-12-07T06:29:38;98772.03;;;5.94;89.00
1077;BME280;64114;48.726;9.370;2022-12-07T06:32:06;98777.22;;;5.98;88.89
1077;BME280;64114;48.726;9.370;2022-12-07T06:34:36;98740.16;;;5.73;88.36
1077;BME280;64114;48.726;9.370;2022-12-07T06:37:05;98774.59;;;5.94;88.23
1077;BME280;64114;48.726;9.370;2022-12-07T06:39:32;98775.47;;;5.96;87.98
1077;BME280;64114;48.726;9.370;2022-12-07T06:42:00;98779.66;;;5.94;88.10
1077;BME280;64114;48.726;9.370;2022-12-07T06:44:28;98769.44;;;5.92;88.61
1077;BME280;64114;48.726;9.370;2022-12-07T06:46:56;98771.06;;;5.89;88.40
1077;BME280;64114;48.726;9.370;2022-12-07T06:49:44;98770.09;;;5.83;88.85
1077;BME280;64114;48.726;9.370;2022-12-07T06:52:14;98776.19;;;5.90;88.65
1077;BME280;64114;48.726;9.370;2022-12-07T06:54:42;98780.28;;;5.85;89.61
1077;BME280;64114;48.726;9.370;2022-12-07T06:57:09;98780.19;;;5.80;89.75
1077;BME280;64114;48.726;9.370;2022-12-07T06:59:38;98773.47;;;5.84;89.40
1077;BME280;64114;48.726;9.370;2022-12-07T07:02:07;98792.25;;;5.88;89.45
1077;BME280;64114;48.726;9.370;2022-12-07T07:04:35;98793.13;;;5.90;88.93
1077;BME280;64114;48.726;9.370;2022-12-07T07:07:04;98792.41;;;5.94;88.72
1077;BME280;64114;48.726;9.370;2022-12-07T07:09:33;98776.00;;;5.82;88.44
1077;BME280;64114;48.726;9.370;2022-12-07T07:12:01;98784.72;;;5.92;88.76
1077;BME280;64114;48.726;9.370;2022-12-07T07:14:29;98792.94;;;5.82;89.48
1077;BME280;64114;48.726;9.370;2022-12-07T07:16:58;98799.06;;;5.89;89.78
1077;BME280;64114;48.726;9.370;2022-12-07T07:19:26;98771.88;;;5.88;88.52
1077;BME280;64114;48.726;9.370;2022-12-07T07:21:53;98802.75;;;6.02;88.48
1077;BME280;64114;48.726;9.370;2022-12-07T07:24:21;98794.47;;;5.75;90.27
1077;BME280;64114;48.726;9.370;2022-12-07T07:26:51;98780.09;;;5.77;90.09
1077;BME280;64114;48.726;9.370;2022-12-07T07:29:18;98801.78;;;5.98;90.18
1077;BME280;64114;48.726;9.370;2022-12-07T07:31:47;98812.97;;;6.03;89.90
1077;BME280;64114;48.726;9.370;2022-12-07T07:34:15;98807.84;;;6.02;89.43
1077;BME280;64114;48.726;9.370;2022-12-07T07:36:43;98811.22;;;6.01;89.74
1077;BME280;64114;48.726;9.370;2022-12-07T07:39:11;98816.28;;;6.01;89.91
1077;BME280;64114;48.726;9.370;2022-12-07T07:41:39;98810.22;;;5.95;90.38
1077;BME280;64114;48.726;9.370;2022-12-07T07:44:13;98812.84;;;5.97;90.30
1077;BME280;64114;48.726;9.370;2022-12-07T07:46:41;98818.78;;;5.99;90.46
1077;BME280;64114;48.726;9.370;2022-12-07T07:49:10;98805.81;;;5.88;89.87
1077;BME280;64114;48.726;9.370;2022-12-07T07:51:38;98826.41;;;5.97;89.97
1077;BME280;64114;48.726;9.370;2022-12-07T07:54:06;98815.47;;;6.02;89.97
1077;BME280;64114;48.726;9.370;2022-12-07T07:56:33;98820.50;;;5.98;89.99
1077;BME280;64114;48.726;9.370;2022-12-07T07:59:01;98819.84;;;6.07;89.54
1077;BME280;64114;48.726;9.370;2022-12-07T08:01:30;98830.25;;;6.17;88.69
1077;BME280;64114;48.726;9.370;2022-12-07T08:03:58;98827.75;;;6.18;88.75
1077;BME280;64114;48.726;9.370;2022-12-07T08:06:26;98819.03;;;6.08;89.25
1077;BME280;64114;48.726;9.370;2022-12-07T08:08:58;98817.44;;;6.12;89.19
1077;BME280;64114;48.726;9.370;2022-12-07T08:11:25;98815.38;;;5.97;89.57
1077;BME280;64114;48.726;9.370;2022-12-07T08:13:53;98807.78;;;6.00;89.69
1077;BME280;64114;48.726;9.370;2022-12-07T08:16:21;98824.16;;;6.10;89.86
1077;BME280;64114;48.726;9.370;2022-12-07T08:18:50;98826.72;;;6.10;90.06
1077;BME280;64114;48.726;9.370;2022-12-07T08:21:19;98824.09;;;6.07;89.74
1077;BME280;64114;48.726;9.370;2022-12-07T08:23:46;98803.81;;;6.11;89.58
1077;BME280;64114;48.726;9.370;2022-12-07T08:26:15;98823.38;;;6.12;89.28
1077;BME280;64114;48.726;9.370;2022-12-07T08:28:43;98833.69;;;6.17;89.80
1077;BME280;64114;48.726;9.370;2022-12-07T08:31:14;98642.63;;;5.05;89.44
1077;BME280;64114;48.726;9.370;2022-12-07T08:33:44;98806.28;;;6.07;89.19
1077;BME280;64114;48.726;9.370;2022-12-07T08:36:14;98831.00;;;6.12;89.19
1077;BME280;64114;48.726;9.370;2022-12-07T08:38:43;98840.22;;;6.07;89.17
1077;BME280;64114;48.726;9.370;2022-12-07T08:41:31;98830.97;;;6.11;89.03
1077;BME280;64114;48.726;9.370;2022-12-07T08:43:59;98832.94;;;6.21;88.81
1077;BME280;64114;48.726;9.370;2022-12-07T08:46:31;98834.44;;;6.13;88.46
1077;BME280;64114;48.726;9.370;2022-12-07T08:49:03;98832.56;;;6.07;88.11
1077;BME280;64114;48.726;9.370;2022-12-07T08:51:33;98836.59;;;5.99;87.52
1077;BME280;64114;48.726;9.370;2022-12-07T08:54:04;98830.59;;;5.95;88.06
1077;BME280;64114;48.726;9.370;2022-12-07T08:56:34;98833.63;;;6.16;87.20
1077;BME280;64114;48.726;9.370;2022-12-07T08:59:03;98833.84;;;6.23;87.09
1077;BME280;64114;48.726;9.370;2022-12-07T09:01:31;98829.78;;;5.98;87.44
1077;BME280;64114;48.726;9.370;2022-12-07T09:03:59;98826.56;;;6.04;86.48
1077;BME280;64114;48.726;9.370;2022-12-07T09:06:28;98833.00;;;6.24;86.02
1077;BME280;64114;48.726;9.370;2022-12-07T09:08:58;98823.56;;;6.20;85.17
1077;BME280;64114;48.726;9.370;2022-12-07T09:11:29;98829.63;;;6.25;84.87
1077;BME280;64114;48.726;9.370;2022-12-07T09:13:57;98831.28;;;6.23;85.19
1077;BME280;64114;48.726;9.370;2022-12-07T09:16:25;98825.47;;;6.29;85.01
1077;BME280;64114;48.726;9.370;2022-12-07T09:18:53;98826.34;;;6.30;84.33
1077;BME280;64114;48.726;9.370;2022-12-07T09:21:23;98815.13;;;6.23;84.71
1077;BME280;64114;48.726;9.370;2022-12-07T09:23:50;98825.53;;;6.31;84.54
1077;BME280;64114;48.726;9.370;2022-12-07T09:26:19;98835.72;;;6.32;84.09
1077;BME280;64114;48.726;9.370;2022-12-07T09:28:48;98841.63;;;6.30;82.29
1077;BME280;64114;48.726;9.370;2022-12-07T09:31:17;98814.69;;;6.04;82.41
1077;BME280;64114;48.726;9.370;2022-12-07T09:33:53;98824.88;;;6.39;82.14
1077;BME280;64114;48.726;9.370;2022-12-07T09:36:22;98819.06;;;6.45;81.89
1077;BME280;64114;48.726;9.370;2022-12-07T09:38:50;98799.75;;;6.53;81.70
1077;BME280;64114;48.726;9.370;2022-12-07T09:41:21;98820.13;;;6.53;80.83
1077;BME280;64114;48.726;9.370;2022-12-07T09:43:50;98814.22;;;6.56;80.21
1077;BME280;64114;48.726;9.370;2022-12-07T09:46:20;98819.31;;;6.56;78.60
1077;BME280;64114;48.726;9.370;2022-12-07T09:48:49;98812.63;;;6.61;79.56
1077;BME280;64114;48.726;9.370;2022-12-07T09:51:21;98807.38;;;6.53;79.31
1077;BME280;64114;48.726;9.370;2022-12-07T09:53:53;98813.31;;;6.52;78.87
1077;BME280;64114;48.726;9.370;2022-12-07T09:56:23;98809.03;;;6.51;78.81
1077;BME280;64114;48.726;9.370;2022-12-07T09:58:58;98808.97;;;6.50;78.76
1077;BME280;64114;48.726;9.370;2022-12-07T10:01:29;98794.16;;;6.70;78.28
1077;BME280;64114;48.726;9.370;2022-12-07T10:04:06;98798.56;;;6.77;78.02
1077;BME280;64114;48.726;9.370;2022-12-07T10:06:37;98795.91;;;6.72;78.43
1077;BME280;64114;48.726;9.370;2022-12-07T10:09:09;98792.66;;;6.78;77.74
1077;BME280;64114;48.726;9.370;2022-12-07T10:12:04;98788.41;;;6.79;78.48
1077;BME280;64114;48.726;9.370;2022-12-07T10:14:35;98770.78;;;6.50;78.48
1077;BME280;64114;48.726;9.370;2022-12-07T10:17:31;98785.00;;;6.78;78.26
1077;BME280;64114;48.726;9.370;2022-12-07T10:20:22;98781.59;;;6.78;78.19
1077;BME280;64114;48.726;9.370;2022-12-07T10:22:55;98785.16;;;6.86;78.33
1077;BME280;64114;48.726;9.370;2022-12-07T10:25:27;98780.13;;;6.89;77.77
1077;BME280;64114;48.726;9.370;2022-12-07T10:28:03;98779.22;;;6.85;77.56
1077;BME280;64114;48.726;9.370;2022-12-07T10:30:47;98740.81;;;6.78;77.37
1077;BME280;64114;48.726;9.370;2022-12-07T10:33:28;98783.81;;;7.02;76.94
1077;BME280;64114;48.726;9.370;2022-12-07T10:35:57;98746.03;;;6.84;77.07
1077;BME280;64114;48.726;9.370;2022-12-07T10:38:26;98718.84;;;6.83;76.82
1077;BME280;64114;48.726;9.370;2022-12-07T10:41:03;98768.91;;;6.81;76.81
1077;BME280;64114;48.726;9.370;2022-12-07T10:43:34;98764.19;;;6.99;77.14
1077;BME280;64114;48.726;9.370;2022-12-07T10:46:27;98775.22;;;6.97;76.83
1077;BME280;64114;48.726;9.370;2022-12-07T10:49:10;98767.75;;;7.08;76.50
1077;BME280;64114;48.726;9.370;2022-12-07T10:51:50;98762.41;;;6.95;76.59
1077;BME280;64114;48.726;9.370;2022-12-07T10:54:26;98764.25;;;7.03;76.10
1077;BME280;64114;48.726;9.370;2022-12-07T11:00:02;98743.34;;;6.76;75.35
1077;BME280;64114;48.726;9.370;2022-12-07T11:05:27;98737.19;;;7.08;76.47
1077;BME280;64114;48.726;9.370;2022-12-07T11:08:03;98734.38;;;6.95;75.22
1077;BME280;64114;48.726;9.370;2022-12-07T11:10:42;98736.34;;;6.67;75.32
1077;BME280;64114;48.726;9.370;2022-12-07T11:13:27;98735.63;;;6.73;75.69
1077;BME280;64114;48.726;9.370;2022-12-07T11:16:11;98718.06;;;6.85;75.47
1077;BME280;64114;48.726;9.370;2022-12-07T11:18:51;98728.63;;;7.04;75.65
1077;BME280;64114;48.726;9.370;2022-12-07T11:21:27;98719.97;;;6.96;74.93
1077;BME280;64114;48.726;9.370;2022-12-07T11:24:03;98711.06;;;6.77;75.02
1077;BME280;64114;48.726;9.370;2022-12-07T11:26:42;98731.75;;;6.92;75.40
1077;BME280;64114;48.726;9.370;2022-12-07T11:29:24;98712.03;;;6.82;75.27
1077;BME280;64114;48.726;9.370;2022-12-07T11:32:04;98721.81;;;7.05;75.13
1077;BME280;64114;48.726;9.370;2022-12-07T11:34:42;98677.28;;;6.85;75.19
1077;BME280;64114;48.726;9.370;2022-12-07T11:37:18;98711.84;;;7.15;75.45
1077;BME280;64114;48.726;9.370;2022-12-07T11:39:50;98687.13;;;7.11;73.91
1077;BME280;64114;48.726;9.370;2022-12-07T11:42:23;98705.50;;;6.95;74.86
1077;BME280;64114;48.726;9.370;2022-12-07T11:44:55;98703.03;;;6.99;75.39
1077;BME280;64114;48.726;9.370;2022-12-07T11:47:34;98699.78;;;7.07;74.84
1077;BME280;64114;48.726;9.370;2022-12-07T11:50:20;98701.41;;;7.03;74.91
1077;BME280;64114;48.726;9.370;2022-12-07T11:52:53;98679.00;;;6.86;75.01
1077;BME280;64114;48.726;9.370;2022-12-07T11:55:27;98672.50;;;7.03;75.12
1077;BME280;64114;48.726;9.370;2022-12-07T11:58:02;98682.22;;;7.22;74.43
1077;BME280;64114;48.726;9.370;2022-12-07T12:00:32;98669.34;;;7.16;74.72
1077;BME280;64114;48.726;9.370;2022-12-07T12:03:08;98678.00;;;7.24;74.52
1077;BME280;64114;48.726;9.370;2022-12-07T12:05:38;98674.66;;;7.28;74.50
1077;BME280;64114;48.726;9.370;2022-12-07T12:08:14;98676.34;;;7.26;74.74
1077;BME280;64114;48.726;9.370;2022-12-07T12:11:12;98671.72;;;7.05;74.95
1077;BME280;64114;48.726;9.370;2022-12-07T12:14:00;98670.78;;;7.01;75.35
1077;BME280;64114;48.726;9.370;2022-12-07T12:17:09;98672.88;;;7.23;74.80
1077;BME280;64114;48.726;9.370;2022-12-07T12:19:54;98666.03;;;7.20;74.74
1077;BME280;64114;48.726;9.370;2022-12-07T12:22:33;98671.75;;;6.64;76.07
1077;BME280;64114;48.726;9.370;2022-12-07T12:25:05;98660.47;;;6.94;76.28
1077;BME280;64114;48.726;9.370;2022-12-07T12:27:36;98661.34;;;6.97;75.36
1077;BME280;64114;48.726;9.370;2022-12-07T12:30:07;98657.97;;;6.98;75.71
1077;BME280;64114;48.726;9.370;2022-12-07T12:32:51;98648.38;;;6.85;75.82
1077;BME280;64114;48.726;9.370;2022-12-07T12:35:29;98656.84;;;6.82;76.09
1077;BME280;64114;48.726;9.370;2022-12-07T12:38:27;98658.84;;;6.99;76.20
1077;BME280;64114;48.726;9.370;2022-12-07T12:40:55;98662.00;;;6.85;76.17
1077;BME280;64114;48.726;9.370;2022-12-07T12:43:43;98657.78;;;6.88;76.14
1077;BME280;64114;48.726;9.370;2022-12-07T12:46:48;98655.34;;;6.94;76.02
1077;BME280;64114;48.726;9.370;2022-12-07T12:49:38;98649.28;;;6.87;76.52
1077;BME280;64114;48.726;9.370;2022-12-07T12:55:25;98650.91;;;6.83;76.73
1077;BME280;64114;48.726;9.370;2022-12-07T12:58:28;98653.47;;;6.85;78.14
1077;BME280;64114;48.726;9.370;2022-12-07T13:04:28;98653.34;;;6.79;80.33
1077;BME280;64114;48.726;9.370;2022-12-07T13:06:58;98641.56;;;6.84;81.18
1077;BME280;64114;48.726;9.370;2022-12-07T13:09:28;98648.78;;;6.62;82.49
1077;BME280;64114;48.726;9.370;2022-12-07T13:12:13;98636.94;;;6.64;83.56
1077;BME280;64114;48.726;9.370;2022-12-07T13:15:19;98634.13;;;6.50;84.23
1077;BME280;64114;48.726;9.370;2022-12-07T13:17:57;98635.97;;;6.57;84.60
1077;BME280;64114;48.726;9.370;2022-12-07T13:20:50;98629.88;;;6.51;85.58
1077;BME280;64114;48.726;9.370;2022-12-07T13:23:21;98631.44;;;6.44;85.30
1077;BME280;64114;48.726;9.370;2022-12-07T13:26:04;98633.56;;;6.24;86.09
1077;BME280;64114;48.726;9.370;2022-12-07T13:28:46;98618.47;;;6.33;86.19
1077;BME280;64114;48.726;9.370;2022-12-07T13:31:30;98622.03;;;6.41;85.80
1077;BME280;64114;48.726;9.370;2022-12-07T13:34:00;98622.81;;;6.37;86.03
1077;BME280;64114;48.726;9.370;2022-12-07T13:36:31;98626.81;;;6.26;86.77
1077;BME280;64114;48.726;9.370;2022-12-07T13:39:18;98625.72;;;6.15;86.21
1077;BME280;64114;48.726;9.370;2022-12-07T13:41:50;98625.72;;;6.13;86.46
1077;BME280;64114;48.726;9.370;2022-12-07T13:44:20;98619.31;;;6.32;86.70
1077;BME280;64114;48.726;9.370;2022-12-07T13:46:56;98614.97;;;6.26;85.70
1077;BME280;64114;48.726;9.370;2022-12-07T13:49:27;98620.06;;;6.28;85.46
1077;BME280;64114;48.726;9.370;2022-12-07T13:52:12;98623.56;;;6.32;85.23
1077;BME280;64114;48.726;9.370;2022-12-07T13:54:47;98628.41;;;6.21;85.06
1077;BME280;64114;48.726;9.370;2022-12-07T13:57:15;98622.69;;;6.31;85.44
1077;BME280;64114;48.726;9.370;2022-12-07T13:59:45;98628.44;;;6.22;85.03
1077;BME280;64114;48.726;9.370;2022-12-07T14:02:19;98627.19;;;6.45;84.53
1077;BME280;64114;48.726;9.370;2022-12-07T14:04:49;98624.56;;;6.40;84.47